SMRA20 UAOL 170600
AAXX 17061

=
20292 42598 80703 10014 20004 30079 40095 52011 8655/=
20476 42298 80205 10037 20029 30102 40115 52005 886// 333 88704=
20871 42598 80502 10086 20067 30090 40096 52004 8555/=
20946 42597 80205 10057 20051 30140 40153 52009 885//=
20978 42499 72902 10105 20071 30056 40091 56005 87500=
20982 42597 80000 10119 20078 30041 58004 885//=
21432 41496 83305 10062 20043 30029 40047 52012 76065 885//=
21535 41496 82003 10030 20015 30026 40044 52018 71022 885//=
21711 42599 81603 10113 20055 30049 40067 57010 885//=
21721 42598 80000 10096 20059 30062 40086 58005 885//=
21813 42498 80000 10133 20092 30028 40060 57016 8553/=
21821 42498 82604 10071 20053 30082 40102 52011 889//=
21824 42598 70702 10092 20061 30081 40089 58006 87500=
21908 42599 72305 10253 20079 39965 40036 57005 85902=
21921 42999 70101 10147 20074 30042 40080 58010 87500=
21931 42498 62904 10114 20058 30061 40090 52012 86900=
21937 42599 63306 10150 20087 39981 40090 51005 86900 333 86923=
21978 42598 82107 10138 20095 30002 40009 52004 8457/ 333 91010 91110=
22193 41597 82702 10079 20065 30183 40193 52006 70282 888//=
22271 42598 41605 10120 20093 30186 40192 58002 84500=
22292 41597 83404 10088 20058 30195 40200 52007 70282 885//=
22365 42998 02504 10140 20091 30181 40207 58001=
22383 42598 83202 10100 20061 30182 40199 54000 885// 333 88621=
22429 42680 71703 10144 20121 30181 40190 57005 81872=
22438 42598 61805 10148 20106 30171 40193 57007 84570=
22446 42998 71904 10137 20102 30117 40210 58003 87030=
22456 42598 21901 10149 20071 30132 40216 58001 82100=
22471 42699 22503 10140 20077 30190 40213 51003 81130=
22481 42998 62702 10125 20082 30162 40213 52002 85031=
22541 42598 71902 10144 20098 30203 40208 58004 88541=
22546 42998 71401 10146 20087 30211 40221 52003 86059=
22550 82997 71601 10144 20104 30211 40220 54001 84031=
22551 42998 51303 10145 20110 30215 40219 54000 83031=
22559 82998 70000 10137 20100 30208 40224 50002 84039=
22563 42898 71602 10126 20081 30186 40220 52002 87030=
22573 42699 72302 10110 20066 30134 40222 52007 8553/ 333 85646=
22641 82699 81201 10148 20110 30200 40215 57002 8255/=
22648 42698 72001 10171 20116 30181 40225 58004 82531=
22656 42972 61701 10131 20105 30204 40224 54000 86030=
22671 42699 71701 10121 20077 30150 40227 52003 82530=
22676 42898 62101 10130 20072 30153 40228 52002 86040=
22686 82598 83403 10103 20044 30127 40225 51007 8657/ 333 86630=
22749 42998 22602 10159 20095 30118 40238 57002 81031=
22762 82597 82501 10130 20105 30194 40232 54001 8357/=
22768 42597 81902 10131 20094 30189 40239 52004 8655/ 333 86627=
22778 42998 72701 10134 20100 30164 40234 52004 87070=
22798 42598 73203 10128 20085 30106 40215 51007 83831=
22845 42698 21902 10156 20092 30095 40246 54000 80001=
22854 42884 22702 10158 20090 39967 40244 52002 81031=
22867 42999 40000 10145 20096 30138 40246 52005 80030=
22869 41997 72701 10129 20101 30102 40246 52005 70241 87050=
22876 42997 72601 10127 20106 30162 40232 52004 87030=
22887 42699 83002 10133 20104 30162 40230 52012 83531=
22889 42699 53302 10137 20076 30142 40225 53015 81130=
22891 12984 01902 10195 20140 30132 40215 58002 60002 333   20120=
22939 42997 20301 10173 20134 30099 40254 52006 80001=
22951 42898 52502 10160 20096 39978 40248 52004 81031=
22954 42982 10000 10175 20089 30009 40247 51004 80001=
22981 42997 63402 10134 20089 30112 40231 52014 84031=
22996 82599 73504 10143 20089 30029 40207 52014 87900 333 84823=
23058 42498 72103 10114 20088 30105 40109 52001 84530 333 84610=
23078 42599 72903 10110 20068 30003 40081 57005 85530=
23112 42498 73105 10076 20062 30150 40158 52012 875// 333 87618=
23114 41497 83107 10088 20067 30164 40172 52011 70282 885//=
23174 42599 73401 10115 20074 30037 5//// 87800=
23179 41598 72701 10112 20092 39963 40075 5//// 70282 86530=
23242 42497 51203 10134 20107 30085 40100 52004 83130=
23274 41598 73503 10121 20091 30042 40075 58003 70262 85530=
23305 42599 73204 10100 20062 30167 40194 52009 85530 333 87624=
23324 42680 82901 10086 20071 30080 40155 52007 885// 333 88636=
23330 82698 83002 10107 20060 30102 40122 52009 884// 333 88641=
23339 42/// /2802 10120 20071 30074 40116 52004=
23345 42597 52904 10140 20076 30094 40103 52010 83830=
23358 42598 82603 10137 20072 30021 40095 54000 8455/=
23376 43/// /3101 10130 20114 39936 40056 56002=
23383 42599 50202 10176 20141 39725 40047 5//// 85900=
23412 42599 62803 10100 20059 30068 40162 52005 83349=
23426 42589 63304 10127 20060 30108 40131 52001 82131 333 91110=
23431 42/// /2904 10118 20060 30107 40127 52005=
23443 82599 62602 10161 20072 30040 40101 54001 84960=
23445 42698 52401 10175 20070 30081 40097 57002 85100=
23453 42699 62702 10158 20085 30064 40093 54000 83201=
23465 42498 83202 10139 20100 30060 40089 52006 880// 333 88912=
23471 42599 70204 10161 20119 30026 40090 52001 85530 333 85621=
23472 41496 83202 10131 20124 30011 40061 52004 76198 8802/=
23503 42598 83403 10103 20056 30137 40186 52006 85950=
23518 42498 83504 10103 20070 30076 40165 52009 889// 333 86619=
23527 42598 50501 10155 20078 30103 40138 54001 82201=
23552 42697 83002 10161 20098 30068 40099 52002 81231=
23578 42599 72003 10268 20190 30011 40045 58005 87900=
23589 41599 60802 10209 20163 39936 40059 58024 71794 86900=
23606 42562 73505 10101 20071 30017 40183 52008 87900 333 84928=
23625 42599 60302 10170 20075 30101 40133 54000 86400=
23631 42599 60104 10147 20067 30092 40131 52005 86500 333 86633=
23635 42597 53301 10151 20058 30013 40115 58001 85500=
23656 42498 80103 10164 20084 30020 40100 54001 83839=
23657 42570 73302 10156 20115 39946 40101 54001 86930 333 84926=
23662 42499 73402 10155 20108 30046 40087 52004 87900=
23678 42598 31502 10224 20130 30013 40065 57007 82201=
23699 42598 83603 10264 20127 39775 40034 5//// 86905=
23701 42599 83403 10109 20045 30082 40208 52009 885// 333 88630=
23708 42598 83304 10118 20061 30051 40195 52007 885// 333 87626=
23711 82598 63602 10137 20085 30002 40164 52006 83930=
23724 42699 83502 10138 20087 30071 40132 52004 885//=
23734 41998 80602 10123 20115 30024 40111 52004 76162 8802/=
23741 82598 60103 10165 20122 39995 40096 58001 86930=
23748 42582 40703 10174 20105 30020 40099 57001 82203=
23758 82597 60302 10178 20101 30012 40093 52004 82139=
23774 43/// /2403 10230 20118 39994 40064 57005=
23776 42599 61402 10222 20132 30016 40072 57008 83101=
23788 41598 60000 10221 20181 39998 40069 57016 70241 86900=
23803 42599 63203 10115 20069 30015 40189 51006 83960=
23812 82597 73602 10124 20076 30002 40158 52004 87500 333 87627=
23823 81497 80403 10123 20114 39976 40109 52005 76162 8802/=
23847 42597 71602 10184 20131 30049 40088 57004 87500=
23849 42996 61003 10184 20117 30022 40091 57006 86030=
23862 42/// /2102 10187 20153 39979 40059 52002=
23884 41984 61802 10241 20107 30011 40077 57009 70242 80001=
23891 41599 31101 10247 20128 39777 40058 58024 71741 83900=
23909 82598 73102 10131 20090 39942 40176 52003 82531=
23921 81599 73302 10140 20078 30005 40117 52005 70282 87900=
23929 41473 83604 10141 20119 30015 40078 54000 70282 889//=
23933 41697 80000 10149 20130 30031 40084 57004 76062 8652/=
23939 82/// /1302 10153 20143 30041 40079 55004=
23946 41597 50502 10175 20115 30033 40092 57008 70241 84101=
23947 42/// /1302 10202 20122 30020 40084 57010=
23955 42398 83402 10161 20142 30023 40080 52002 889// 333 85708=
23966 42597 60000 10239 20143 39956 40070 53005 85530=
23973 46/// /1201 10228 20120 30021 40077 57011=
23975 42699 62301 10194 20140 39991 40090 52002 83201=
23982 41698 21001 10252 20157 39935 40073 58020 70400 82201=
23986 42599 62202 10226 20118 39490 40061 57013 86300=
23987 42597 60801 10212 20170 30013 40079 57009 86530=
23992 41599 10601 10251 20125 39844 40066 57016 70240 81200=
24125 42999 51602 10249 20092 39788 40035 57016 80002=
24136 41999 11002 10240 20064 39966 40054 57019 70240 80001=
24143 41/94 92602 10171 20137 30019 40064 58018 70544 89///=
24194 41599 73507 10179 20100 30016 40064 52011 70422 87900=
24219 42599 60000 10234 20111 39777 40044 57013 81146=
24261 42799 31204 10206 20083 39495 40048 57008 83200=
24263 42799 50702 10211 20101 39822 40068 58005 84901=
24266 42699 20902 10231 20093 39909 40066 57008 82300=
24322 42699 81003 10221 20073 39482 40043 57012 83531=
24329 42599 70505 10238 20088 39773 40041 58020 82109=
24338 41598 30605 10228 20086 39689 40032 57013 70411 82201=
24343 42999 60204 10225 20142 39939 40045 57013 80002=
24361 42599 42702 10234 20106 39820 40047 57013 84100=
24371 42699 50000 10217 20106 39755 40068 58004 85200=
24382 42799 63003 10203 20117 39839 40065 52002 83501=
24449 42599 60402 10248 20150 39937 40020 57015 82231=
24462 42699 80000 10177 20046 39183 40052 57005 855//=
24477 42599 62001 10202 20109 39299 40050 57007 86400=
24507 41698 73601 10248 20140 39829 40045 57024 70241 83804=
24525 41597 83603 10139 20134 39697 49999 57014 76362 8472/=
24538 41598 70602 10208 20125 39838 49997 56016 70422 87500=
24557 42999 61202 10250 20126 39917 40013 58010 84031=
24585 41799 62704 10196 20090 39473 40060 58001 70262 84530=
24588 42699 60000 10201 20075 39398 40060 57003 86530=
24606 42699 80403 10232 20115 39795 40034 57011 82545=
24639 21597 80704 10201 20132 39845 49982 57009 78082 8492/=
24641 42599 81104 10218 20123 39870 49997 57006 86531=
24643 42699 80903 10226 20143 39916 40003 57008 82535=
24644 42599 80803 10214 20146 39852 49984 56010 8435/=
24652 42999 81005 10270 20088 39906 40014 57011 82032=
24656 42999 80908 10268 20079 39938 40029 57010 82036 333 91111=
24661 42699 71103 10242 20086 39796 40033 57011 84531=
24668 42999 61404 10247 20093 39938 40042 57014 80005=
24671 42999 62101 10232 20103 39599 40050 57013 82039=
24679 42699 70000 10186 20006 38647 48440 57005 86501=
24684 42999 80201 10191 20083 39200 40063 57007 8805/=
24688 42699 70000 10182 20085 39235 40064 57007 87500=
24691 42699 81601 10186 20081 39154 40042 57004 885//=
24724 41496 83503 10134 20132 39510 49996 56014 78186 889//=
24725 42599 83603 10139 20134 39697 49999 57014 8472/=
24737 41498 81802 10136 20131 39816 49979 53002 76162 887//=
24753 42999 71304 10253 20138 39911 40013 57005 81089=
24758 41599 80501 10242 20160 39734 49994 57001 70282 83970=
24763 42999 60901 10247 20096 39942 40073 54000 80001=
24768 42598 71402 10236 20138 39818 40018 53001 87500=
24771 42899 42002 10264 20051 39723 40046 57013 82031=
24790 42699 72202 10192 20094 39324 40058 57007 86580 333 86643=
24802 41596 83201 10199 20153 39636 40043 5//// 70422 86905=
24807 41598 83602 10259 20113 39670 40042 57017 70242 86901=
24817 41498 83202 10134 20127 39698 40028 57011 78082 889//=
24826 41499 82403 10133 20118 39595 40005 57008 70262 8872/=
24843 41599 80000 10223 20212 39761 49986 57002 70262 8597/=
24856 42999 80403 10237 20173 39875 40010 58002 883//=
24871 42998 81101 10261 20123 39880 40040 57012 83051=
24894 42/// /2202 10189 20077 39132 40062 57004=
24898 42699 72203 10184 20092 39433 40084 54001 82531=
24908 41598 82401 10175 20143 39753 40053 57017 70282 889//=
24918 42599 83203 10140 20108 39698 40043 57005 8691/=
24923 41599 62303 10182 20115 39721 49998 57013 70282 83931=
24928 42599 82302 10179 20089 39664 40006 57015 888//=
24933 41599 72703 10154 20138 39718 40009 52002 70262 85230=
24944 41498 82404 10155 20130 39742 40009 51002 70262 85931=
24951 41999 70000 10233 20187 39845 49994 53002 70282 85372=
24959 42699 81002 10245 20188 39899 40013 57004 86231=
24962 41599 80502 10223 20182 39864 40030 53001 70298 84348=
24966 42699 80802 10259 20181 39835 40025 57010 82276=
24967 42699 82102 10288 20100 39841 40032 57008 86501=
24982 42599 51603 10215 20104 39634 40084 57010 82901=
24988 42699 61902 10206 20139 39868 40096 57008 82102=
25017 41499 62604 10161 20154 30004 40023 52010 70262 83571=
25034 42498 82509 10152 20104 39969 49997 53004 8555/ 333 91012 91114=
25042 42998 81803 10128 20109 39986 40002 58003 8802/ 333 91004 91105=
25044 41598 80000 10128 20103 39997 40002 57002 70282 8495/ 333 91103=
25121 41396 82504 10145 20129 30012 40026 52014 75152 886//=
25123 41798 81501 10152 20135 39991 40021 53002 70262 8257/=
25129 42599 82401 10165 20111 30011 40021 52002 885// 333 91105=
25138 42599 72403 10201 20045 39910 40019 53001 86530 333 91110=
25147 42599 72403 10199 20046 39698 40017 57006 86530 333 91110=
25206 41698 82401 10148 20139 30013 40050 52015 78082 8593/=
25248 42999 83102 10148 20053 39624 40034 53001 8805/ 333 91109=
25335 42598 72902 10219 20021 39705 40031 57005 83531 333 91108=
25400 41898 83002 10164 20122 30016 40066 52024 70262 8802/=
25428 42984 81503 10212 20051 39742 40039 56007 86031 333 91109=
25627 42999 21704 10187 20017 39268 40062 56004 80001=
25648 82599 22204 10183 20047 30060 40112 57005 81531 333 91111=
25700 42699 80000 10224 20120 39695 40049 54001 8653/=
25703 42999 82402 10230 20104 39809 40048 56002 85037=
25705 42999 82302 10242 20059 39747 40043 54000 80001=
25707 41997 80201 10209 20085 39663 40060 57002 70522 80005=
25715 42999 02604 10197 20066 39502 40067 56005=
25745 42999 02705 10185 20064 30075 40123 56008=
25808 42699 62402 10207 20064 39276 40062 54001 82531=
25820 42599 21804 10150 20102 30122 40136 57001 82400=
25904 42/// /2102 10196 20082 39494 40085 54001=
25913 42498 72505 10136 20120 39991 40130 57004 87600 333 91110=
25916 42999 23101 10132 20115 30061 40139 57007 82030=
25919 42999 81302 10086 20073 30126 40142 57002 8801/=
25922 42699 52205 10135 20102 30091 40131 57004 85500=
25927 42999 02008 10154 20115 30117 40123 57009 333 91010 91111=
25941 42598 23203 10141 20076 30129 40146 53002 82500=
25956 42598 82704 10124 20084 30154 40160 57002 885//=
26038 01/70 11702 10185 20140 30160 40199 57003 60002 70200 81030  333  10186 20129 60007 81///  555  10022 20129 30010 50170 52010=
26072 12998 02001 10168 20142 30215 40234 52003 60002 333   20117=
26242 01/70 21702 10190 20162 30134 40218 52002 60002 70200 81031 333 10190 20145 60007 81/// 555 11021 20145 31012 50173 52011=
26291 12998 00000 10161 20126 30138 40244 51001 60002 333   20088=
26313 33/// /2102 10202 20160 40197 52001 333 20140=
26346 32997 01603 10175 20141 40225 52004 333 20126=
26381 13999 00000 10195 20151 30175 40248 52003 60002 333   20089=
26406 32997 01502 10183 20151 40198 52002 333 20132=
26416 43/// /1802 10190 20151 30073 40206 52003 333 91003=
26422 33/// /1401 10193 20157 40208 52003 333 20167=
26424 33/// /1502 10184 20148 40209 52004 333 20118=
26477 12997 00000 10164 20148 30112 40237 52001 60002 333   20076=
26509 32970 01102 10195 20175 30192 40201 53004 333 20144 31/// 91004 91104 555 53004 7000/=
26518 32970 11503 10180 20156 40207 53005 81030 333 20122 31/// 91003 91103 555 53003 7000/=
26524 32970 01901 10186 20149 30084 40211 53004 333 20127 30/// 91002 91102 555 53002 7000/=
26531 32970 01202 10181 20158 40213 53004 333 20129 31/// 91004 91104 555 53004 7000/=
26544 43/// /3602 10163 20161 30105 40222 52003 333 91002=
26554 32597 60601 10157 20147 30069 40226 52004 84530 333 20127 555 31012 52011 90010=
26578 61968 00701 10169 20151 30038 40234 50004 60002 70240 333   20068 31018 555   52007 53004=
26607 12997 01701 10200 20146 30162 40195 52003 60002 333 20154 91003 91104=
26614 12998 00000 10195 20156 30162 40205 52005 60002 333 20137 91001 91103=
26629 32970 00000 10186 20161 30120 40211 53003 333 20128 31/// 91000 91100 555 53001 7000/=
26633 32970 10000 10182 20160 30090 40215 53002 80001 333 20112 31/// 91001 91101 555 53001 7000/=
26645 32965 00000 10185 20156 39964 40211 52004 333 20113 555 31010 52009 90010=
26653 32660 71401 10162 20145 30071 40228 52005 87500 333 20135 87639 555 30013 52011 90010=
26657 11468 60902 10172 20161 39987 40215 53003 69912 70284 86700 333 20115 86713 555 31013 52011=
26659 32567 21301 10162 20146 30018 40224 82500 333 20140 555 31013 52011=
26666 31960 00401 10179 20143 30020 40227 52003 70241 333 20118 555 30012 52011 90010=
26668 32981 00701 10171 20145 30018 40225 52004 333 20134 555 31013 52012 90010=
26701 12998 01404 10200 20154 30190 40195 53004 60002 333 20181 91006 91106=
26706 12969 01402 10187 20158 30143 40205 52003 60002 333 20135 31014 91004 91104=
26711 12998 00000 10193 20159 30167 40205 52003 60002 333 20129 91002 91102=
26730 32970 10000 10184 20159 30029 40213 52001 81030 333 20130 31/// 91002 91102 555 53002 7000/=
26759 31680 52802 10174 20157 39991 40213 52003 70241 85500 333 20142 555 31014 52012 90010=
26763 32560 31302 10176 20152 30002 40220 52006 82530 333 20133 555 31012 52010 90010=
26774 32565 60404 10168 20149 39984 40222 52005 86500 333 20137 86628 555 30015 52013 90012=
26784 62998 70701 10169 20145 39989 40229 52006 60002 87030 333   20139 31013 555   52012 53005=
26825 32960 20000 10184 20146 30027 40202 54000 82030 333 20128 555 30012 52011=
26832 32960 00000 10188 20158 30025 40210 53003 333 20137 555 30014 52011 90010=
26850 32460 80000 10170 20158 39950 40216 52003 885// 333 20152 88710 555 30013 52014 90010=
26853 32560 60902 10181 20159 30030 40211 52003 86600 333 20125 555 30014 52010 90010=
26855 31928 00701 10167 20165 30003 40212 52002 71000 333 20121 555 30011 52010=
26863 32960 30802 10183 20145 39985 40212 51002 83030 333 20142 555 30013 52011=
26864 31994 80602 10162 20160 30026 40210 52004 71041 8801/ 333 20116 555 30014 52010=
26882 62498 70701 10168 20152 39958 40223 52006 60002 86630 333   20146 31014 87711 555   52012 53004=
26887 32681 60803 10190 20164 30013 40209 52007 82139 333 20145 555 31016 52014 90010=
26941 32997 00000 10194 20146 39978 40204 52001 333 20120 555 30013 52010 90010=
26951 32964 01201 10198 20158 30018 40207 53005 333 20126 555 30014 52010 90010=
26961 31957 00402 10167 20162 30021 40206 52002 71040 333 20097 555 30013 52009 90011=
26966 31356 40601 10191 20168 30038 40204 52004 71000 84600 333 20145 555 31013 52011 90011=
27037 42898 60000 10161 20120 30098 42007 52007 86030=
27051 42897 63401 10148 20098 30086 40247 52009 84031=
27066 42598 73602 10151 20095 30065 40235 52009 82132=
27113 42960 10000 10161 20117 30113 40254 51006 81030=
27164 81960 33401 10159 20112 30063 40243 51010 70240 80001=
27176 82982 00103 10160 20100 30037 40227 52010=
27223 42982 00000 10170 20106 30114 40255 52008=
27225 82963 00000 10183 20096 30130 40255 52009=
27242 82984 20000 10167 20104 30128 40251 52010 80009=
27252 82984 10402 10156 20096 30065 40244 51011 80001=
27271 82997 80102 10162 20102 30084 40233 52010 83031 333   20039=
27321 81980 00401 10176 20108 30108 40253 52007 70240=
27329 82975 00501 10169 20114 30132 40253 51010=
27333 81980 13501 10160 20115 30100 40251 51010 70240 80001=
27347 82997 00201 10174 20105 30097 40246 52009=
27355 82597 23502 10164 20126 30085 40243 52011 82100=
27369 42998 00302 10148 20117 30100 40232 52011 333 91004 91104=
27401 62997 11001 10175 20134 30048 40253 52004 60002 80001 333 20074 31011 555 53002=
27417 62997 00401 10166 20128 30051 40248 52006 69932 333 20069 31008 555 53002=
27419 11997 02801 10146 20133 30035 40250 52007 60002 71040 333 20083 32010 555 53002=
27459 42997 00101 10170 20119 30040 40227 52009 333 91003 91103=
27523 62997 03501 10178 20120 30082 40241 52008 60002 333 20107 31011 555 53003=
27532 82997 00402 10167 20119 30037 40241 52008=
27539 82998 00201 10182 20119 30075 40236 52008=
27593 82698 43603 10177 20101 30018 40199 51010 8410/=
27595 81697 20202 10179 20103 30066 40207 52011 70281 82100=
27611 61997 00601 10183 20121 30014 40240 52006 60002 70240 333 20100 31010 555 53003=
27618 62997 20602 10182 20131 30040 40234 51007 60002 80004 333 20123 31012 555 53004=
27643 42997 00402 10178 20120 30081 40214 58005 333 91004 91104=
27648 82597 10701 10173 20122 30069 40230 52011 81100=
27697 82598 63504 10167 20108 30014 40200 52010 85930=
27730 82998 00502 10183 20131 30046 40232 52012=
27745 42498 30405 10183 20113 30084 40220 52012 82101=
27799 82597 70203 10178 20121 30105 40192 52012 84501 333   84629=
27823 82999 00104 10178 20113 39974 40220 51010=
27835 82697 60402 10190 20130 30066 40216 52011 86200=
27848 42597 70303 10175 20142 30040 40207 52015 87500=
27858 82497 80103 10168 20140 39889 40195 52020 885// 333   88618=
27872 82598 70303 10172 20136 39991 40198 52012 87900=
27890 82597 70103 10196 20138 30095 40181 52011 86330=
27894 42484 80304 10172 20140 30017 40186 52015 889// 333 20171 88911=
27928 42597 60304 10189 20148 30004 40201 52009 86530=
27935 41696 70204 10169 20139 30019 40206 52014 71011 87500=
27947 42360 83403 10178 20158 30043 40200 52017 886// 333 88709=
27955 82497 80403 10177 20153 39956 40198 52017 885// 333   88618=
27957 42697 80602 10189 20148 39979 40177 52014 8232/=
27962 42497 80802 10181 20159 39987 40190 52012 887// 333   88610=
27972 42998 83402 10182 20153 39890 40185 52013 8803/=
27981 82599 80503 10189 20152 30068 40184 53012 889// 333   88924=
27983 82598 80203 10192 20137 30059 40181 53014 883// 333   88931=
27995 82698 80203 10218 20166 30116 40173 52010 86401=
28044 81499 83303 10129 20101 39955 40103 50008 70262 887//=
28064 41499 80602 10143 20134 39966 40049 57010 72162 887//=
28097 42597 50401 10195 20129 30018 40089 58009 83501=
28116 82599 23505 10142 20079 39954 40176 53018 81130=
28138 81599 83203 10116 20102 39572 40114 52009 70282 885//=
28144 81498 83303 10132 20115 39946 40095 52010 78082 8732/=
28165 42/// /0000 10165 20158 39946 40042 57008=
28216 82599 23504 10146 20066 39888 40171 52013 82100 333 91110=
28255 81496 83301 10163 20153 39926 40046 57002 75185 886//=
28275 41598 81504 10167 20148 30002 40057 57018 70282 8595/=
28319 82599 40104 10166 20054 30014 40169 52012 84100=
28366 41597 72203 10201 20151 39997 40056 57016 70282 87900=
28367 82596 82202 10191 20162 39941 40058 57004 8337/=
28382 82584 82102 10196 20149 30025 40089 57009 86901=
28428 82599 73405 10153 20093 39982 40158 52013 87900=
28434 81599 83102 10144 20120 39893 40137 52015 78022 889//=
28465 41599 62104 10195 20148 39997 40068 57009 70282 83339=
28481 81597 81602 10172 20152 30008 40098 57008 76164 8687/=
28491 82670 62602 10198 20139 39992 40094 57005 84201=
28493 81498 73002 10205 20150 30003 40087 57002 70242 84932=
28506 82697 30303 10170 20089 30082 40189 52012 8310/=
28517 82597 60104 10168 20091 30048 40180 52012 83201 333 91110=
28522 42598 73206 10151 20097 39908 40152 52013 87200=
28552 82597 72603 10205 20145 39974 40077 57006 87900=
28593 81498 82902 10183 20153 30008 40097 54001 70241 883//=
28612 82598 73604 10172 20102 30084 40178 51012 85204=
28621 42598 73203 10155 20103 39943 40163 51015 87900 333 20139=
28645 82497 82804 10216 20134 39832 40104 58003 883//=
28655 81598 72404 10215 20132 39887 40091 56007 70282 84930=
28661 81699 62103 10236 20139 30002 40087 58010 70282 82931=
28666 81698 72104 10203 20131 39934 40095 57012 70282 87900=
28698 81598 81902 10191 20144 39967 40109 57003 70254 885//=
28704 81698 80204 10165 20120 30098 40190 52012 70282 86432=
28705 82597 80204 10154 20121 39998 40186 51015 889// 333 20140 88631=
28709 42598 70505 10152 20109 39883 40179 52013 87900 333   20145=
28711 81598 83604 10148 20105 39822 40180 52014 70282 8635/ 333 86920=
28719 42499 80105 10154 20110 39761 40167 52012 889// 333 20152=
28722 41697 83503 10157 20108 30039 40164 52015 70282 885// 333 20156=
28748 82597 72603 10217 20113 39895 40115 58003 86930=
28756 81998 72202 10216 20136 39969 40105 58006 70282 82049=
28786 81598 63103 10207 20138 39974 40118 51010 70242 85502=
28797 82597 82803 10190 20152 39974 40119 54001 86332 333 86922=
28799 82998 53302 10241 20149 39970 40102 52002 80005=
28802 82599 70306 10166 20117 30042 40179 52013 86470 333   20159=
28805 81597 63501 10214 20151 30100 40168 52011 70181 82130=
28806 41597 70203 10198 20142 30056 40168 52008 70282 85330 333 85920=
28825 41597 83504 10175 20137 39999 40160 53012 70298 889// 333 91110=
28838 42598 72505 10209 20085 39691 40130 58002 87500=
28900 82597 80202 10191 20147 30011 40174 52014 8343/ 333   20186=
28901 82599 80305 10196 20160 30084 40169 52012 8648/ 333   86632=
28902 42597 70206 10184 20132 30017 40177 52012 8457/=
28904 42597 80505 10210 20164 40174 52012 8652/ 333   86623=
28908 42598 73603 10245 20149 30056 40157 51005 87900=
28909 42497 30104 10249 20166 30059 40151 52004 82531=
28916 41997 63503 10227 20141 39928 40150 51003 70281 86080=
29023 42598 70000 10232 20167 39981 40069 57004 83432=
29059 42598 62101 10228 20107 39971 40088 57008 86201=
29068 42699 71103 10240 20119 30003 40080 57015 82205=
29111 42599 82702 10226 20148 39985 40065 57002 82981=
29122 42799 51903 10250 20132 39998 40063 57008 82132=
29149 42698 72901 10234 20069 39967 40087 57009 84202=
29154 42597 72103 10220 20119 39972 40103 54000 83431=
29203 42499 83203 10193 20140 39983 40076 50001 885// 333 88615=
29209 42598 82501 10180 20149 39965 40081 52003 885//=
29231 42998 41502 10237 20150 39991 40078 57006 81031=
29253 42699 71101 10238 20127 39927 40083 57012 84201=
29263 42699 73302 10233 20135 39988 40083 57013 82101=
29274 42599 30102 10238 20136 39983 40086 57015 81102=
29276 46/// /2602 10250 20130 39889 40084 57014=
29282 42597 63201 10270 20109 39914 40065 57017 84901=
29313 42698 71602 10245 20148 39956 40066 57006 81132=
29328 42/// /1503 10247 20110 3//// 4//// 5////=
29332 42698 62001 10241 20114 39950 40079 57007 82131=
29348 42997 72701 10228 20121 39952 40085 57006 80006=
29363 46/// /1701 10232 20119 39872 40078 57013=
29367 46/// /1301 10238 20122 39871 40077 57011=
29374 42598 60701 10246 20120 39978 40085 57014 82101=
29379 42998 52402 10261 20110 39893 40083 57014 80001=
29393 41595 82501 10228 20139 39823 40074 57016 70542 80007=
29405 42697 82505 10234 20136 39950 40083 58001 84102=
29418 42698 62801 10256 20157 39929 40072 58004 82131=
29430 42998 60000 10239 20122 39920 40079 57006 80001=
29456 42599 61101 10226 20153 39838 40072 57010 86400=
29464 42999 61802 10228 20143 39808 40071 57012 83031=
29467 42598 71301 10232 20146 39781 40073 57010 85501=
29471 42998 41202 10251 20074 39874 40079 57016 83004=
29477 42999 61302 10275 20111 39891 40077 57019 80005=
29481 42994 42601 10272 20105 3//// 4//// 5//// 80001=
29485 42697 22701 10262 20094 39805 40084 57014 81101=
29524 42998 61602 10251 20132 39927 40074 58006 80001=
29551 41999 80000 10203 20154 39912 40078 57008 70242 80002=
29553 42898 71502 10213 20154 39742 40075 57009 85041=
29557 42698 73201 10207 20146 39832 40074 57010 82535=
29558 42599 80801 10230 20159 39705 40065 57012 82939=
29561 42897 71302 10228 20137 39780 40071 57012 84075=
29562 42998 72201 10232 20114 39697 40072 57013 84075=
29563 42999 62501 10229 20050 39536 40073 58009 80002=
29566 42899 70000 10233 20098 39764 40075 58016 85042=
29571 42998 71401 10254 20109 39806 40071 57015 80002=
29576 42998 51002 10244 20091 39657 40078 57014 80001=
29578 42999 71303 10251 20076 39619 40066 57012 80001=
29580 42998 71602 10239 20089 39672 40078 57013 80001=
29581 42998 61502 10258 20090 39850 40080 57018 80001=
29587 41698 60901 10250 20101 39797 40083 57017 70241 82531=
29594 42699 22602 10244 20120 39735 40084 57013 81109=
29602 42599 73004 10221 20147 39961 40090 52002 87500=
29605 42998 72903 10222 20145 39962 40092 54000 87030=
29612 42998 03002 10245 20159 39942 40079 54001=
29625 42998 50101 10244 20120 39913 40072 57002 82035=
29631 42998 50602 10243 20137 39906 40073 57003 80001=
29636 42999 01401 10248 20145 39873 40069 57009=
29638 42975 63302 10258 20124 39920 40070 57007 80004=
29645 42998 63502 10239 20143 39902 40070 57006 80002=
29653 42998 51402 10230 20145 39629 40065 57017 80001=
29654 42599 72502 10232 20101 39501 40055 57012 83331=
29662 41999 71102 10236 20113 39708 40071 58014 70242 80002=
29664 41999 51503 10228 20130 39704 40071 57015 70241 80001=
29674 46/// /3602 10246 20086 3//// 4//// 5////=
29676 42999 61602 10244 20118 39689 40068 57017 80005=
29698 42699 20101 10243 20116 39621 40083 57017 81101=
29706 42698 23604 10256 20158 39947 40078 52001 82401=
29712 42998 41901 10277 20109 39946 40073 57002 82071=
29724 42699 61101 10248 20124 39887 40070 57002 83531=
29726 42998 41402 10269 20105 39915 40065 58002 81071=
29736 42998 51002 10266 20100 39836 40063 57007 80001=
29752 42599 60000 10222 20052 38761 48442 57013 83849=
29759 42999 60902 10218 20119 39131 40057 58012 80002=
29766 42999 61001 10251 20121 39753 40072 58017 80001=
29768 46/// /2803 10211 20138 39786 40076 58018=
29771 42999 61802 10226 20093 39185 40067 57009 80001=
29772 43/// /2201 10254 20077 39532 40065 58016=
29789 42999 60501 10240 20083 39987 40047 57023 82031=
29813 42999 73602 10249 20110 39897 40072 53005 82032=
29814 42999 50502 10281 20097 39947 40077 52003 83072=
29822 42598 80203 10283 20107 39916 40062 57006 82502=
29827 42698 83103 10247 20154 39923 40062 53004 8453/=
29838 42997 30502 10267 20141 39847 40054 58009 80001=
29864 46/// /1502 10225 20119 39476 40063 57018=
29866 42999 50201 10233 20127 39798 40087 57001 80001=
29869 42998 20701 10232 20146 39730 40067 57016 80001=
29874 43/// /3301 10243 20138 39710 40070 58014=
29876 42999 61601 10260 20135 39574 40068 57018 80001=
29915 41598 73602 10258 20110 39925 40068 52003 70282 82932=
29923 43/// /0503 10293 20106 39800 40044 57007=
29937 42699 20403 10295 20120 39841 40036 58011 82509=
29939 41598 60502 10223 20150 39804 40060 56012 70182 83509=
29956 42999 41001 10210 20146 39562 40069 57019 70241 80002=
29974 42997 21104 10189 20104 38576 48474 57008 80001 333 91110=
29998 81999 00502 10200 20022 38594 48470 57028 70240=20087 42998 83504 10003 21001 30115 40125 52008 8005/


SMUS20 KWBC 170600
AAXX 17064